Terminal Aerodrome Forecast
Issued by NWS

Home | Current Version | Previous Version | Graphics & Text | Print | Product List | Glossary On
Versions: 1 2 3 4 5 6 7 8 9 10 11 12 13 14 15 16 17 18 19 20 21 22 23
000
FTUS43 KICT 230714 AAA
TAFHUT
TAF AMD
KHUT 230714Z 2307/2406 17017G25KT 3SM BR BKN004 OVC006
     FM231500 25012KT P6SM OVC008
     FM231600 35026G32KT P6SM OVC015
     FM232300 35020G28KT P6SM OVC050=

USA.gov is the U.S. government's official web portal to all federal, state and local government web resources and services.